createdAt,value
2022-10-26T00:01:33.450Z,14.04
2022-10-26T00:04:00.054Z,14.07
2022-10-26T00:06:26.803Z,14.08
2022-10-26T00:08:53.337Z,14.11
2022-10-26T00:11:19.981Z,14.12
2022-10-26T00:13:47.684Z,14.14
2022-10-26T00:16:24.463Z,14.15
2022-10-26T00:18:51.193Z,14.17
2022-10-26T00:21:18.383Z,14.19
2022-10-26T00:23:45.170Z,14.19
2022-10-26T00:26:12.194Z,14.21
2022-10-26T00:28:38.941Z,14.21
2022-10-26T00:31:08.492Z,14.23
2022-10-26T00:33:35.545Z,14.25
2022-10-26T00:36:02.226Z,14.26
2022-10-26T00:38:28.799Z,14.28
2022-10-26T00:40:55.530Z,14.29
2022-10-26T00:43:21.966Z,14.29
2022-10-26T00:45:55.471Z,14.30
2022-10-26T00:48:28.640Z,14.29
2022-10-26T00:50:58.728Z,14.29
2022-10-26T00:53:25.566Z,14.28
2022-10-26T00:55:53.937Z,14.27
2022-10-26T00:58:21.798Z,14.27
2022-10-26T01:03:31.819Z,14.22
2022-10-26T01:05:58.782Z,14.19
2022-10-26T01:08:26.484Z,14.17
2022-10-26T01:10:53.361Z,14.15
2022-10-26T01:13:20.587Z,14.14
2022-10-26T01:16:21.924Z,14.11
2022-10-26T01:19:23.686Z,14.10
2022-10-26T01:22:06.691Z,14.12
2022-10-26T01:24:41.623Z,14.11
2022-10-26T01:27:11.226Z,14.10
2022-10-26T01:29:51.108Z,14.12
2022-10-26T01:32:20.216Z,14.11
2022-10-26T01:35:18.775Z,14.12
2022-10-26T01:37:57.775Z,14.12
2022-10-26T01:40:34.723Z,14.14
2022-10-26T01:43:05.713Z,14.14
2022-10-26T01:45:35.233Z,14.18
2022-10-26T01:48:04.312Z,14.19
2022-10-26T01:50:32.268Z,14.20
2022-10-26T01:52:58.762Z,14.20
2022-10-26T01:55:51.069Z,14.21
2022-10-26T01:58:54.804Z,14.21
2022-10-26T02:01:46.094Z,14.22
2022-10-26T02:04:31.105Z,14.24
2022-10-26T02:07:02.160Z,14.29
2022-10-26T02:09:43.905Z,14.29
2022-10-26T02:12:40.461Z,14.28
2022-10-26T02:15:31.585Z,14.28
2022-10-26T02:18:06.442Z,14.30
2022-10-26T02:20:44.605Z,14.30
2022-10-26T02:23:12.795Z,14.30
2022-10-26T02:25:47.890Z,14.20
2022-10-26T02:28:19.920Z,14.27
2022-10-26T02:30:52.401Z,14.28
2022-10-26T02:33:21.105Z,14.28
2022-10-26T02:35:52.629Z,14.28
2022-10-26T02:38:21.377Z,14.25
2022-10-26T02:40:51.440Z,14.23
2022-10-26T02:43:19.828Z,14.23
2022-10-26T02:45:54.046Z,14.22
2022-10-26T02:48:21.385Z,14.24
2022-10-26T02:51:00.119Z,14.22
2022-10-26T02:53:51.873Z,14.21
2022-10-26T02:56:24.574Z,14.22
2022-10-26T02:58:58.077Z,14.21
2022-10-26T03:01:25.338Z,14.24
2022-10-26T03:03:51.954Z,14.23
2022-10-26T03:06:22.846Z,14.24
2022-10-26T03:08:49.951Z,14.28
2022-10-26T03:11:17.186Z,14.30
2022-10-26T03:13:44.139Z,14.28
2022-10-26T03:16:11.549Z,14.28
2022-10-26T03:18:38.065Z,14.28
2022-10-26T03:21:04.769Z,14.29
2022-10-26T03:23:31.265Z,14.29
2022-10-26T03:25:59.012Z,14.29
2022-10-26T03:28:25.959Z,14.29
2022-10-26T03:30:52.492Z,14.31
2022-10-26T03:33:19.021Z,14.31
2022-10-26T03:35:45.646Z,14.32
2022-10-26T03:38:15.913Z,14.33
2022-10-26T03:40:42.697Z,14.33
2022-10-26T03:43:09.258Z,14.32
2022-10-26T03:45:35.719Z,14.33
2022-10-26T03:48:02.187Z,14.33
2022-10-26T03:50:28.799Z,14.33
2022-10-26T03:52:55.252Z,14.33
2022-10-26T03:55:21.776Z,14.34
2022-10-26T03:57:48.248Z,14.35
2022-10-26T04:00:16.849Z,14.36
2022-10-26T04:02:44.991Z,14.38
2022-10-26T04:05:11.454Z,14.31
2022-10-26T04:07:37.962Z,14.39
2022-10-26T04:10:05.628Z,14.44
2022-10-26T04:12:32.224Z,14.44
2022-10-26T04:14:58.752Z,14.45
2022-10-26T04:17:25.323Z,14.47
2022-10-26T04:19:51.788Z,14.47
2022-10-26T04:22:18.287Z,14.48
2022-10-26T04:24:44.832Z,14.50
2022-10-26T04:27:11.282Z,14.49
2022-10-26T04:29:37.768Z,14.46
2022-10-26T04:32:04.602Z,14.48
2022-10-26T04:34:31.076Z,14.45
2022-10-26T04:36:57.538Z,14.47
2022-10-26T04:39:24.198Z,14.47
2022-10-26T04:41:50.668Z,14.46
2022-10-26T04:44:17.329Z,14.45
2022-10-26T04:46:44.050Z,14.46
2022-10-26T04:49:10.740Z,14.45
2022-10-26T04:51:37.229Z,14.46
2022-10-26T04:54:03.867Z,14.47
2022-10-26T04:56:30.542Z,14.49
2022-10-26T04:58:57.298Z,14.50
2022-10-26T05:01:24.046Z,14.52
2022-10-26T05:03:51.485Z,14.54
2022-10-26T05:06:18.003Z,14.55
2022-10-26T05:08:44.703Z,14.57
2022-10-26T05:11:11.280Z,14.58
2022-10-26T05:13:37.794Z,14.59
2022-10-26T05:16:04.625Z,14.60
2022-10-26T05:18:31.183Z,14.61
2022-10-26T05:20:57.678Z,14.60
2022-10-26T05:23:24.379Z,14.61
2022-10-26T05:25:51.237Z,14.61
2022-10-26T05:28:18.320Z,14.63
2022-10-26T05:30:46.243Z,14.67
2022-10-26T05:33:14.319Z,14.65
2022-10-26T05:35:41.263Z,14.56
2022-10-26T05:38:09.528Z,14.62
2022-10-26T05:40:36.550Z,14.65
2022-10-26T05:43:03.118Z,14.63
2022-10-26T05:45:30.190Z,14.64
2022-10-26T05:47:59.959Z,14.63
2022-10-26T05:50:29.166Z,14.63
2022-10-26T05:52:55.730Z,14.63
2022-10-26T05:55:22.867Z,14.62
2022-10-26T05:57:50.058Z,14.61
2022-10-26T06:00:26.135Z,14.60
2022-10-26T06:03:23.854Z,14.60
2022-10-26T06:05:52.083Z,14.53
2022-10-26T06:08:19.361Z,14.63
2022-10-26T06:10:46.872Z,14.64
2022-10-26T06:13:13.708Z,14.63
2022-10-26T06:15:58.158Z,14.61
2022-10-26T06:18:49.683Z,14.63
2022-10-26T06:21:16.168Z,14.63
2022-10-26T06:23:54.738Z,14.63
2022-10-26T06:26:42.741Z,14.66
2022-10-26T06:29:55.844Z,14.69
2022-10-26T06:32:24.114Z,14.75
2022-10-26T06:34:56.872Z,14.78
2022-10-26T06:37:24.940Z,14.83
2022-10-26T06:39:54.693Z,14.88
2022-10-26T06:42:21.706Z,14.93
2022-10-26T06:44:48.875Z,14.98
2022-10-26T06:47:24.551Z,15.00
2022-10-26T06:49:59.587Z,15.05
2022-10-26T06:52:38.747Z,15.10
2022-10-26T06:55:05.881Z,15.15
2022-10-26T06:57:35.629Z,15.19
2022-10-26T07:00:06.655Z,15.23
2022-10-26T07:02:33.297Z,15.29
2022-10-26T07:04:59.904Z,15.34
2022-10-26T07:07:29.249Z,15.40
2022-10-26T07:09:56.020Z,15.45
2022-10-26T07:12:22.565Z,15.51
2022-10-26T07:14:49.100Z,15.57
2022-10-26T07:17:15.600Z,15.63
2022-10-26T07:19:42.081Z,15.69
2022-10-26T07:22:08.577Z,15.75
2022-10-26T07:24:35.157Z,15.80
2022-10-26T07:27:01.725Z,15.86
2022-10-26T07:29:28.354Z,15.91
2022-10-26T07:31:54.951Z,15.98
2022-10-26T07:34:21.551Z,16.03
2022-10-26T07:36:48.006Z,16.08
2022-10-26T07:39:14.512Z,16.12
2022-10-26T07:41:41.255Z,16.17
2022-10-26T07:44:07.705Z,16.21
2022-10-26T07:46:34.210Z,16.26
2022-10-26T07:49:00.800Z,16.29
2022-10-26T07:51:27.556Z,16.33
2022-10-26T07:53:54.015Z,16.37
2022-10-26T07:56:20.529Z,16.40
2022-10-26T07:58:46.984Z,16.44
2022-10-26T08:01:15.080Z,16.48
2022-10-26T08:03:42.244Z,16.52
2022-10-26T08:06:08.842Z,16.54
2022-10-26T08:08:35.380Z,16.58
2022-10-26T08:11:02.610Z,16.61
2022-10-26T08:13:29.458Z,16.65
2022-10-26T08:15:59.420Z,16.67
2022-10-26T08:18:25.978Z,16.74
2022-10-26T08:20:53.296Z,16.79
2022-10-26T08:23:20.352Z,16.84
2022-10-26T08:25:46.895Z,16.86
2022-10-26T08:28:13.807Z,16.91
2022-10-26T08:30:40.319Z,16.95
2022-10-26T08:33:08.100Z,16.98
2022-10-26T08:35:34.591Z,16.98
2022-10-26T08:38:01.134Z,17.01
2022-10-26T08:40:32.277Z,17.01
2022-10-26T08:43:18.570Z,17.02
2022-10-26T08:45:54.728Z,17.03
2022-10-26T08:48:27.075Z,17.06
2022-10-26T08:50:56.915Z,17.08
2022-10-26T08:53:52.630Z,17.08
2022-10-26T08:56:21.461Z,17.13
2022-10-26T08:59:14.357Z,17.14
2022-10-26T09:01:41.033Z,17.22
2022-10-26T09:04:12.431Z,17.26
2022-10-26T09:06:47.979Z,17.31
2022-10-26T09:09:59.106Z,17.36
2022-10-26T09:12:53.754Z,17.40
2022-10-26T09:16:00.301Z,17.43
2022-10-26T09:18:51.791Z,17.47
2022-10-26T09:21:31.141Z,17.52
2022-10-26T09:24:19.311Z,17.61
2022-10-26T09:26:54.613Z,17.68
2022-10-26T09:29:27.663Z,17.77
2022-10-26T09:31:56.841Z,17.90
2022-10-26T09:34:31.672Z,18.02
2022-10-26T09:36:58.557Z,18.15
2022-10-26T09:39:45.340Z,18.26
2022-10-26T09:42:38.892Z,18.40
2022-10-26T09:45:25.650Z,18.57
2022-10-26T09:47:54.824Z,18.74
2022-10-26T09:50:28.498Z,18.92
2022-10-26T09:52:55.013Z,19.07
2022-10-26T09:55:21.555Z,19.23
2022-10-26T09:57:52.176Z,19.39
2022-10-26T10:00:21.446Z,19.56
2022-10-26T10:02:53.630Z,19.71
2022-10-26T10:08:20.407Z,20.03
2022-10-26T10:11:07.281Z,20.14
2022-10-26T10:13:37.231Z,20.29
2022-10-26T10:16:10.424Z,20.41
2022-10-26T10:18:38.016Z,20.52
2022-10-26T10:21:05.961Z,20.61
2022-10-26T10:23:36.085Z,20.59
2022-10-26T10:26:09.191Z,20.76
2022-10-26T10:28:35.814Z,20.88
2022-10-26T10:31:05.498Z,20.94
2022-10-26T10:33:33.327Z,20.96
2022-10-26T10:36:00.642Z,20.96
2022-10-26T10:38:27.468Z,20.97
2022-10-26T10:41:00.375Z,20.98
2022-10-26T10:43:27.415Z,20.98
2022-10-26T10:45:59.535Z,20.98
2022-10-26T10:48:29.671Z,20.99
2022-10-26T10:51:01.733Z,21.00
2022-10-26T10:53:36.780Z,21.00
2022-10-26T10:56:19.216Z,21.05
2022-10-26T10:58:57.180Z,21.06
2022-10-26T11:01:31.397Z,21.11
2022-10-26T11:04:22.105Z,21.14
2022-10-26T11:06:50.393Z,21.20
2022-10-26T11:09:20.794Z,21.24
2022-10-26T11:11:55.556Z,21.26
2022-10-26T11:14:35.373Z,21.29
2022-10-26T11:17:22.172Z,21.31
2022-10-26T11:20:02.561Z,21.31
2022-10-26T11:22:35.110Z,21.34
2022-10-26T11:25:16.904Z,21.37
2022-10-26T11:27:49.282Z,21.38
2022-10-26T11:30:22.158Z,21.39
2022-10-26T11:32:52.118Z,21.40
2022-10-26T11:35:30.963Z,21.40
2022-10-26T11:38:28.094Z,21.41
2022-10-26T11:41:21.743Z,21.44
2022-10-26T11:43:54.853Z,21.48
2022-10-26T11:46:28.341Z,21.51
2022-10-26T11:49:00.783Z,21.54
2022-10-26T11:51:30.343Z,21.58
2022-10-26T11:54:01.692Z,21.61
2022-10-26T11:56:35.937Z,21.62
2022-10-26T12:01:57.017Z,21.65
2022-10-26T12:04:29.980Z,21.66
2022-10-26T12:07:01.825Z,21.67
2022-10-26T12:09:35.850Z,21.67
2022-10-26T12:12:19.280Z,21.67
2022-10-26T12:15:03.847Z,21.66
2022-10-26T12:17:55.657Z,21.67
2022-10-26T12:20:48.879Z,21.66
2022-10-26T12:23:23.319Z,21.66
2022-10-26T12:26:28.186Z,21.56
2022-10-26T12:29:03.363Z,21.52
2022-10-26T12:31:33.054Z,21.46
2022-10-26T12:34:00.358Z,21.43
2022-10-26T12:36:56.257Z,21.34
2022-10-26T12:39:36.096Z,21.30
2022-10-26T12:42:05.719Z,21.26
2022-10-26T12:44:34.850Z,21.23
2022-10-26T12:47:01.435Z,21.22
2022-10-26T12:50:05.226Z,21.17
2022-10-26T12:52:51.633Z,21.15
2022-10-26T12:55:39.161Z,21.17
2022-10-26T12:58:42.146Z,21.16
2022-10-26T13:01:22.043Z,21.20
2022-10-26T13:04:19.503Z,21.20
2022-10-26T13:07:07.332Z,21.25
2022-10-26T13:09:33.707Z,21.17
2022-10-26T13:12:02.642Z,21.29
2022-10-26T13:14:39.350Z,21.32
2022-10-26T13:17:17.932Z,21.34
2022-10-26T13:19:49.231Z,21.34
2022-10-26T13:22:19.643Z,21.35
2022-10-26T13:24:55.963Z,21.35
2022-10-26T13:27:27.411Z,21.40
2022-10-26T13:30:03.110Z,21.41
2022-10-26T13:32:39.035Z,21.43
2022-10-26T13:35:12.027Z,21.50
2022-10-26T13:37:46.293Z,21.55
2022-10-26T13:40:17.520Z,21.61
2022-10-26T13:42:54.646Z,21.63
2022-10-26T13:45:30.707Z,21.67
2022-10-26T13:48:18.457Z,21.68
2022-10-26T13:50:49.810Z,21.63
2022-10-26T13:53:45.747Z,21.75
2022-10-26T13:56:22.191Z,21.75
2022-10-26T13:58:55.301Z,21.74
2022-10-26T14:01:23.371Z,21.75
2022-10-26T14:03:50.510Z,21.62
2022-10-26T14:06:26.664Z,21.67
2022-10-26T14:08:57.617Z,21.68
2022-10-26T14:11:32.624Z,21.65
2022-10-26T14:13:59.977Z,21.62
2022-10-26T14:16:30.041Z,21.57
2022-10-26T14:18:56.576Z,21.55
2022-10-26T14:21:23.198Z,21.53
2022-10-26T14:23:53.574Z,21.52
2022-10-26T14:26:38.451Z,21.50
2022-10-26T14:29:16.613Z,21.48
2022-10-26T14:31:43.185Z,21.48
2022-10-26T14:34:13.657Z,21.48
2022-10-26T14:36:46.144Z,21.48
2022-10-26T14:39:32.857Z,21.44
2022-10-26T14:42:05.828Z,21.44
2022-10-26T14:44:32.412Z,21.45
2022-10-26T14:46:59.300Z,21.43
2022-10-26T14:49:27.820Z,21.40
2022-10-26T14:52:05.548Z,21.35
2022-10-26T14:54:33.032Z,21.33
2022-10-26T14:56:59.590Z,21.30
2022-10-26T14:59:28.822Z,21.29
2022-10-26T15:02:15.546Z,21.27
2022-10-26T15:04:57.166Z,21.25
2022-10-26T15:07:23.958Z,21.23
2022-10-26T15:09:52.445Z,21.22
2022-10-26T15:12:38.904Z,21.18
2022-10-26T15:18:25.029Z,21.14
2022-10-26T15:20:53.250Z,21.13
2022-10-26T15:23:21.468Z,21.10
2022-10-26T15:26:01.834Z,21.06
2022-10-26T15:28:38.354Z,21.00
2022-10-26T15:31:12.638Z,20.98
2022-10-26T15:33:41.673Z,20.92
2022-10-26T15:36:08.148Z,20.87
2022-10-26T15:38:35.494Z,20.83
2022-10-26T15:41:03.862Z,20.76
2022-10-26T15:43:30.364Z,20.73
2022-10-26T15:45:57.050Z,20.67
2022-10-26T15:48:28.569Z,20.61
2022-10-26T15:50:55.791Z,20.56
2022-10-26T15:53:25.619Z,20.48
2022-10-26T15:55:53.695Z,20.44
2022-10-26T15:58:20.351Z,20.29
2022-10-26T16:00:46.931Z,20.34
2022-10-26T16:03:16.815Z,20.31
2022-10-26T16:05:43.324Z,20.25
2022-10-26T16:08:17.745Z,20.21
2022-10-26T16:10:45.670Z,20.16
2022-10-26T16:13:13.424Z,20.11
2022-10-26T16:15:40.240Z,20.06
2022-10-26T16:18:07.053Z,20.02
2022-10-26T16:20:33.744Z,19.98
2022-10-26T16:23:00.393Z,19.91
2022-10-26T16:25:27.041Z,19.87
2022-10-26T16:27:55.252Z,19.81
2022-10-26T16:30:24.727Z,19.67
2022-10-26T16:32:53.698Z,19.70
2022-10-26T16:35:20.287Z,19.67
2022-10-26T16:37:46.853Z,19.63
2022-10-26T16:40:13.819Z,19.57
2022-10-26T16:42:40.360Z,19.54
2022-10-26T16:45:06.955Z,19.50
2022-10-26T16:47:33.628Z,19.47
2022-10-26T16:50:00.380Z,19.43
2022-10-26T16:52:26.864Z,19.40
2022-10-26T16:54:53.379Z,19.36
2022-10-26T16:57:19.931Z,19.32
2022-10-26T16:59:46.488Z,19.29
2022-10-26T17:02:14.429Z,19.26
2022-10-26T17:04:40.938Z,19.12
2022-10-26T17:07:07.523Z,19.16
2022-10-26T17:09:34.015Z,19.14
2022-10-26T17:12:02.046Z,19.11
2022-10-26T17:14:29.010Z,19.08
2022-10-26T17:16:55.515Z,19.06
2022-10-26T17:19:22.142Z,19.02
2022-10-26T17:21:48.802Z,19.01
2022-10-26T17:24:18.207Z,18.97
2022-10-26T17:26:44.818Z,18.95
2022-10-26T17:29:12.968Z,18.92
2022-10-26T17:31:39.743Z,18.80
2022-10-26T17:34:06.200Z,18.85
2022-10-26T17:36:32.756Z,18.85
2022-10-26T17:38:59.337Z,18.81
2022-10-26T17:41:25.831Z,18.78
2022-10-26T17:43:54.059Z,18.75
2022-10-26T17:46:35.285Z,18.71
2022-10-26T17:49:02.227Z,18.69
2022-10-26T17:51:33.897Z,18.66
2022-10-26T17:54:09.160Z,18.62
2022-10-26T17:56:36.178Z,18.60
2022-10-26T17:59:06.032Z,18.57
2022-10-26T18:01:32.939Z,18.55
2022-10-26T18:03:59.519Z,18.53
2022-10-26T18:06:26.350Z,18.48
2022-10-26T18:08:53.039Z,18.45
2022-10-26T18:11:26.437Z,18.41
2022-10-26T18:13:54.962Z,18.36
2022-10-26T18:16:22.622Z,18.32
2022-10-26T18:18:53.862Z,18.24
2022-10-26T18:24:51.548Z,18.11
2022-10-26T18:27:18.272Z,18.07
2022-10-26T18:29:44.830Z,18.02
2022-10-26T18:32:11.306Z,17.98
2022-10-26T18:34:37.886Z,17.94
2022-10-26T18:37:04.315Z,17.89
2022-10-26T18:39:30.892Z,17.83
2022-10-26T18:41:57.397Z,17.79
2022-10-26T18:44:24.021Z,17.73
2022-10-26T18:46:50.602Z,17.68
2022-10-26T18:49:18.125Z,17.62
2022-10-26T18:51:45.076Z,17.57
2022-10-26T18:54:12.193Z,17.51
2022-10-26T18:56:38.840Z,17.45
2022-10-26T18:59:05.666Z,17.39
2022-10-26T19:01:34.633Z,17.34
2022-10-26T19:04:06.970Z,17.30
2022-10-26T19:06:38.945Z,17.25
2022-10-26T19:09:06.986Z,17.22
2022-10-26T19:11:34.354Z,17.16
2022-10-26T19:14:01.104Z,17.13
2022-10-26T19:16:47.218Z,17.11
2022-10-26T19:19:15.421Z,17.09
2022-10-26T19:21:46.655Z,17.05
2022-10-26T19:24:17.675Z,17.02
2022-10-26T19:26:45.609Z,17.00
2022-10-26T19:29:14.552Z,16.95
2022-10-26T19:31:41.888Z,16.92
2022-10-26T19:34:11.404Z,16.88
2022-10-26T19:36:38.247Z,16.84
2022-10-26T19:39:05.082Z,16.81
2022-10-26T19:41:31.628Z,16.77
2022-10-26T19:46:27.925Z,16.67
2022-10-26T19:48:57.034Z,16.62
2022-10-26T19:51:24.959Z,16.59
2022-10-26T19:53:51.643Z,16.53
2022-10-26T19:56:18.639Z,16.49
2022-10-26T19:58:45.103Z,16.45
2022-10-26T20:01:13.425Z,16.41
2022-10-26T20:03:40.827Z,16.36
2022-10-26T20:06:09.324Z,16.31
2022-10-26T20:08:35.801Z,16.27
2022-10-26T20:11:03.122Z,16.21
2022-10-26T20:13:29.837Z,16.18
2022-10-26T20:15:56.389Z,16.12
2022-10-26T20:18:22.962Z,16.08
2022-10-26T20:20:49.484Z,16.04
2022-10-26T20:23:15.987Z,16.00
2022-10-26T20:25:48.137Z,15.95
2022-10-26T20:28:16.235Z,15.91
2022-10-26T20:30:43.780Z,15.87
2022-10-26T20:33:11.205Z,15.83
2022-10-26T20:35:38.458Z,15.80
2022-10-26T20:38:06.950Z,15.76
2022-10-26T20:40:34.641Z,15.73
2022-10-26T20:43:01.417Z,15.68
2022-10-26T20:45:32.372Z,15.66
2022-10-26T20:48:00.517Z,15.60
2022-10-26T20:50:28.610Z,15.47
2022-10-26T20:53:09.038Z,15.49
2022-10-26T20:56:02.198Z,15.46
2022-10-26T20:58:40.991Z,15.41
2022-10-26T21:01:25.264Z,15.38
2022-10-26T21:03:53.283Z,15.34
2022-10-26T21:06:20.304Z,15.30
2022-10-26T21:08:49.187Z,15.27
2022-10-26T21:11:16.885Z,15.23
2022-10-26T21:13:45.729Z,15.17
2022-10-26T21:16:12.750Z,15.15
2022-10-26T21:18:39.748Z,15.11
2022-10-26T21:21:06.819Z,15.10
2022-10-26T21:23:35.547Z,15.07
2022-10-26T21:26:03.143Z,15.03
2022-10-26T21:28:34.667Z,14.98
2022-10-26T21:31:05.438Z,14.97
2022-10-26T21:33:32.011Z,14.94
2022-10-26T21:36:03.273Z,14.90
2022-10-26T21:38:31.434Z,14.87
2022-10-26T21:41:04.430Z,14.75
2022-10-26T21:43:31.854Z,14.80
2022-10-26T21:45:59.411Z,14.79
2022-10-26T21:48:27.353Z,14.76
2022-10-26T21:50:54.068Z,14.73
2022-10-26T21:53:20.859Z,14.72
2022-10-26T21:55:47.714Z,14.69
2022-10-26T21:58:17.318Z,14.67
2022-10-26T22:00:43.858Z,14.65
2022-10-26T22:03:10.346Z,14.62
2022-10-26T22:05:36.838Z,14.60
2022-10-26T22:08:03.579Z,14.58
2022-10-26T22:10:30.036Z,14.56
2022-10-26T22:12:58.627Z,14.54
2022-10-26T22:15:25.184Z,14.51
2022-10-26T22:17:54.632Z,14.50
2022-10-26T22:20:21.143Z,14.47
2022-10-26T22:22:47.637Z,14.43
2022-10-26T22:25:14.086Z,14.41
2022-10-26T22:27:40.617Z,14.39
2022-10-26T22:30:07.921Z,14.39
2022-10-26T22:32:34.394Z,14.34
2022-10-26T22:35:30.411Z,14.34
2022-10-26T22:37:47.432Z,14.31
2022-10-26T22:40:13.962Z,14.29
2022-10-26T22:42:40.507Z,14.27
2022-10-26T22:45:07.640Z,14.26
2022-10-26T22:47:34.213Z,14.22
2022-10-26T22:50:00.677Z,14.20
2022-10-26T22:52:27.516Z,14.19
2022-10-26T22:54:54.026Z,14.18
2022-10-26T22:57:20.497Z,14.16
2022-10-26T22:59:47.030Z,14.13
2022-10-26T23:02:13.740Z,14.13
2022-10-26T23:04:40.358Z,14.11
2022-10-26T23:07:06.943Z,14.09
2022-10-26T23:09:33.461Z,14.07
2022-10-26T23:12:00.010Z,14.05
2022-10-26T23:14:26.790Z,14.03
2022-10-26T23:16:53.272Z,14.02
2022-10-26T23:19:19.851Z,14.00
2022-10-26T23:21:46.387Z,13.97
2022-10-26T23:24:12.824Z,13.95
2022-10-26T23:26:39.351Z,13.94
2022-10-26T23:29:05.924Z,13.92
2022-10-26T23:31:32.416Z,13.90
2022-10-26T23:33:58.942Z,13.88
2022-10-26T23:36:25.633Z,13.85
2022-10-26T23:38:52.088Z,13.83
2022-10-26T23:41:18.668Z,13.79
2022-10-26T23:43:45.189Z,13.78
2022-10-26T23:46:11.851Z,13.77
2022-10-26T23:48:38.446Z,13.75
2022-10-26T23:51:05.208Z,13.73
2022-10-26T23:53:31.765Z,13.72
2022-10-26T23:55:58.288Z,13.70
2022-10-26T23:58:24.820Z,13.68
